sensor_id;sensor_type;location;lat;lon;timestamp;P1;durP1;ratioP1;P2;durP2;ratioP2
65469;SDS011;52067;50.710;14.492;2023-03-14T00:01:20;16.58;;;8.48;;
65469;SDS011;52067;50.710;14.492;2023-03-14T00:03:46;16.80;;;8.57;;
65469;SDS011;52067;50.710;14.492;2023-03-14T00:06:13;14.50;;;7.57;;
65469;SDS011;52067;50.710;14.492;2023-03-14T00:08:39;17.10;;;8.65;;
65469;SDS011;52067;50.710;14.492;2023-03-14T00:11:10;16.25;;;8.00;;
65469;SDS011;52067;50.710;14.492;2023-03-14T00:13:37;16.40;;;8.23;;
65469;SDS011;52067;50.710;14.492;2023-03-14T00:16:04;14.60;;;7.85;;
65469;SDS011;52067;50.710;14.492;2023-03-14T00:18:31;12.93;;;7.00;;
65469;SDS011;52067;50.710;14.492;2023-03-14T00:21:00;11.25;;;8.48;;
65469;SDS011;52067;50.710;14.492;2023-03-14T00:23:27;11.63;;;7.43;;
65469;SDS011;52067;50.710;14.492;2023-03-14T00:25:53;14.85;;;7.15;;
65469;SDS011;52067;50.710;14.492;2023-03-14T00:28:22;78.55;;;70.00;;
65469;SDS011;52067;50.710;14.492;2023-03-14T00:30:48;26.85;;;16.35;;
65469;SDS011;52067;50.710;14.492;2023-03-14T00:33:13;26.83;;;15.30;;
65469;SDS011;52067;50.710;14.492;2023-03-14T00:35:39;22.13;;;12.18;;
65469;SDS011;52067;50.710;14.492;2023-03-14T00:38:04;17.15;;;8.25;;
65469;SDS011;52067;50.710;14.492;2023-03-14T00:40:29;19.25;;;12.63;;
65469;SDS011;52067;50.710;14.492;2023-03-14T00:42:55;19.00;;;12.48;;
65469;SDS011;52067;50.710;14.492;2023-03-14T00:45:20;14.43;;;7.55;;
65469;SDS011;52067;50.710;14.492;2023-03-14T00:47:45;14.63;;;8.02;;
65469;SDS011;52067;50.710;14.492;2023-03-14T00:50:11;14.55;;;7.75;;
65469;SDS011;52067;50.710;14.492;2023-03-14T00:52:37;18.17;;;10.45;;
65469;SDS011;52067;50.710;14.492;2023-03-14T00:55:02;17.35;;;10.55;;
65469;SDS011;52067;50.710;14.492;2023-03-14T00:57:28;27.17;;;16.60;;
65469;SDS011;52067;50.710;14.492;2023-03-14T00:59:54;44.28;;;32.70;;
65469;SDS011;52067;50.710;14.492;2023-03-14T01:02:20;29.00;;;25.80;;
65469;SDS011;52067;50.710;14.492;2023-03-14T01:04:47;16.13;;;10.18;;
65469;SDS011;52067;50.710;14.492;2023-03-14T01:07:13;18.00;;;11.23;;
65469;SDS011;52067;50.710;14.492;2023-03-14T01:09:39;13.15;;;8.23;;
65469;SDS011;52067;50.710;14.492;2023-03-14T01:12:04;14.90;;;7.70;;
65469;SDS011;52067;50.710;14.492;2023-03-14T01:14:30;15.23;;;8.65;;
65469;SDS011;52067;50.710;14.492;2023-03-14T01:16:55;14.65;;;7.80;;
65469;SDS011;52067;50.710;14.492;2023-03-14T01:19:25;16.60;;;8.65;;
65469;SDS011;52067;50.710;14.492;2023-03-14T01:21:52;16.40;;;9.23;;
65469;SDS011;52067;50.710;14.492;2023-03-14T01:24:17;17.98;;;7.95;;
65469;SDS011;52067;50.710;14.492;2023-03-14T01:26:43;13.05;;;7.93;;
65469;SDS011;52067;50.710;14.492;2023-03-14T01:29:08;12.90;;;7.57;;
65469;SDS011;52067;50.710;14.492;2023-03-14T01:31:33;13.18;;;8.00;;
65469;SDS011;52067;50.710;14.492;2023-03-14T01:33:59;20.25;;;13.73;;
65469;SDS011;52067;50.710;14.492;2023-03-14T01:36:24;22.88;;;13.77;;
65469;SDS011;52067;50.710;14.492;2023-03-14T01:38:50;26.00;;;14.18;;
65469;SDS011;52067;50.710;14.492;2023-03-14T01:41:17;15.77;;;9.18;;
65469;SDS011;52067;50.710;14.492;2023-03-14T01:43:45;17.08;;;10.60;;
65469;SDS011;52067;50.710;14.492;2023-03-14T01:51:46;15.75;;;9.75;;
65469;SDS011;52067;50.710;14.492;2023-03-14T01:54:31;17.55;;;9.88;;
65469;SDS011;52067;50.710;14.492;2023-03-14T01:57:30;14.23;;;8.93;;
65469;SDS011;52067;50.710;14.492;2023-03-14T02:00:03;17.90;;;9.55;;
65469;SDS011;52067;50.710;14.492;2023-03-14T02:02:39;16.35;;;8.95;;
65469;SDS011;52067;50.710;14.492;2023-03-14T02:05:10;15.10;;;8.60;;
65469;SDS011;52067;50.710;14.492;2023-03-14T02:07:50;17.33;;;9.43;;
65469;SDS011;52067;50.710;14.492;2023-03-14T02:10:17;13.23;;;8.93;;
65469;SDS011;52067;50.710;14.492;2023-03-14T02:12:46;16.95;;;9.82;;
65469;SDS011;52067;50.710;14.492;2023-03-14T02:15:13;16.85;;;9.52;;
65469;SDS011;52067;50.710;14.492;2023-03-14T02:17:39;17.80;;;9.38;;
65469;SDS011;52067;50.710;14.492;2023-03-14T02:20:09;17.08;;;9.05;;
65469;SDS011;52067;50.710;14.492;2023-03-14T02:22:36;17.42;;;9.60;;
65469;SDS011;52067;50.710;14.492;2023-03-14T02:27:53;16.15;;;9.30;;
65469;SDS011;52067;50.710;14.492;2023-03-14T02:30:20;16.15;;;9.57;;
65469;SDS011;52067;50.710;14.492;2023-03-14T02:32:48;14.45;;;8.70;;
65469;SDS011;52067;50.710;14.492;2023-03-14T02:35:24;18.13;;;8.95;;
65469;SDS011;52067;50.710;14.492;2023-03-14T02:40:55;15.05;;;8.98;;
65469;SDS011;52067;50.710;14.492;2023-03-14T02:43:20;21.27;;;9.43;;
65469;SDS011;52067;50.710;14.492;2023-03-14T02:45:47;17.80;;;8.63;;
65469;SDS011;52067;50.710;14.492;2023-03-14T02:48:18;16.75;;;10.45;;
65469;SDS011;52067;50.710;14.492;2023-03-14T02:50:46;18.88;;;10.88;;
65469;SDS011;52067;50.710;14.492;2023-03-14T02:53:15;18.45;;;10.73;;
65469;SDS011;52067;50.710;14.492;2023-03-14T02:55:47;18.17;;;9.52;;
65469;SDS011;52067;50.710;14.492;2023-03-14T02:58:13;23.35;;;10.68;;
65469;SDS011;52067;50.710;14.492;2023-03-14T03:00:39;18.35;;;9.65;;
65469;SDS011;52067;50.710;14.492;2023-03-14T03:03:05;20.88;;;10.20;;
65469;SDS011;52067;50.710;14.492;2023-03-14T03:05:31;20.00;;;10.45;;
65469;SDS011;52067;50.710;14.492;2023-03-14T03:07:57;71.38;;;11.95;;
65469;SDS011;52067;50.710;14.492;2023-03-14T03:10:22;21.73;;;10.73;;
65469;SDS011;52067;50.710;14.492;2023-03-14T03:12:48;17.10;;;9.85;;
65469;SDS011;52067;50.710;14.492;2023-03-14T03:15:13;15.73;;;9.68;;
65469;SDS011;52067;50.710;14.492;2023-03-14T03:17:38;15.55;;;9.23;;
65469;SDS011;52067;50.710;14.492;2023-03-14T03:20:04;19.63;;;9.95;;
65469;SDS011;52067;50.710;14.492;2023-03-14T03:22:30;17.15;;;9.10;;
65469;SDS011;52067;50.710;14.492;2023-03-14T03:24:56;15.43;;;9.13;;
65469;SDS011;52067;50.710;14.492;2023-03-14T03:27:21;16.58;;;9.13;;
65469;SDS011;52067;50.710;14.492;2023-03-14T03:29:46;15.40;;;9.50;;
65469;SDS011;52067;50.710;14.492;2023-03-14T03:32:12;15.68;;;8.60;;
65469;SDS011;52067;50.710;14.492;2023-03-14T03:34:38;16.48;;;8.63;;
65469;SDS011;52067;50.710;14.492;2023-03-14T03:37:03;19.50;;;10.32;;
65469;SDS011;52067;50.710;14.492;2023-03-14T03:39:28;23.42;;;11.18;;
65469;SDS011;52067;50.710;14.492;2023-03-14T03:41:54;21.25;;;10.85;;
65469;SDS011;52067;50.710;14.492;2023-03-14T03:44:19;19.05;;;9.90;;
65469;SDS011;52067;50.710;14.492;2023-03-14T03:46:45;21.58;;;9.40;;
65469;SDS011;52067;50.710;14.492;2023-03-14T03:49:10;17.02;;;9.52;;
65469;SDS011;52067;50.710;14.492;2023-03-14T03:51:35;21.80;;;9.27;;
65469;SDS011;52067;50.710;14.492;2023-03-14T03:54:01;53.60;;;12.13;;
65469;SDS011;52067;50.710;14.492;2023-03-14T03:56:26;179.13;;;15.63;;
65469;SDS011;52067;50.710;14.492;2023-03-14T03:58:51;26.48;;;12.27;;
65469;SDS011;52067;50.710;14.492;2023-03-14T04:01:17;27.23;;;10.98;;
65469;SDS011;52067;50.710;14.492;2023-03-14T04:03:42;23.33;;;11.52;;
65469;SDS011;52067;50.710;14.492;2023-03-14T04:06:09;18.52;;;9.95;;
65469;SDS011;52067;50.710;14.492;2023-03-14T04:08:36;16.73;;;10.38;;
65469;SDS011;52067;50.710;14.492;2023-03-14T04:11:02;18.67;;;9.90;;
65469;SDS011;52067;50.710;14.492;2023-03-14T04:13:28;13.18;;;8.23;;
65469;SDS011;52067;50.710;14.492;2023-03-14T04:15:54;12.93;;;7.95;;
65469;SDS011;52067;50.710;14.492;2023-03-14T04:18:20;17.70;;;8.35;;
65469;SDS011;52067;50.710;14.492;2023-03-14T04:20:50;14.30;;;8.75;;
65469;SDS011;52067;50.710;14.492;2023-03-14T04:23:16;15.30;;;8.60;;
65469;SDS011;52067;50.710;14.492;2023-03-14T04:25:42;14.48;;;8.23;;
65469;SDS011;52067;50.710;14.492;2023-03-14T04:28:07;14.02;;;8.18;;
65469;SDS011;52067;50.710;14.492;2023-03-14T04:30:33;16.48;;;9.38;;
65469;SDS011;52067;50.710;14.492;2023-03-14T04:32:58;20.15;;;10.10;;
65469;SDS011;52067;50.710;14.492;2023-03-14T04:35:23;23.63;;;11.60;;
65469;SDS011;52067;50.710;14.492;2023-03-14T04:37:49;23.48;;;11.25;;
65469;SDS011;52067;50.710;14.492;2023-03-14T04:40:16;23.50;;;11.95;;
65469;SDS011;52067;50.710;14.492;2023-03-14T04:42:42;24.67;;;12.85;;
65469;SDS011;52067;50.710;14.492;2023-03-14T04:45:08;24.45;;;13.02;;
65469;SDS011;52067;50.710;14.492;2023-03-14T04:47:34;22.48;;;11.63;;
65469;SDS011;52067;50.710;14.492;2023-03-14T04:49:59;23.08;;;11.20;;
65469;SDS011;52067;50.710;14.492;2023-03-14T04:52:25;24.63;;;11.73;;
65469;SDS011;52067;50.710;14.492;2023-03-14T04:54:51;22.02;;;11.80;;
65469;SDS011;52067;50.710;14.492;2023-03-14T04:57:16;22.15;;;12.13;;
65469;SDS011;52067;50.710;14.492;2023-03-14T04:59:42;30.73;;;13.80;;
65469;SDS011;52067;50.710;14.492;2023-03-14T05:02:07;25.90;;;12.30;;
65469;SDS011;52067;50.710;14.492;2023-03-14T05:04:33;26.08;;;13.00;;
65469;SDS011;52067;50.710;14.492;2023-03-14T05:06:58;24.77;;;13.10;;
65469;SDS011;52067;50.710;14.492;2023-03-14T05:09:24;27.65;;;13.23;;
65469;SDS011;52067;50.710;14.492;2023-03-14T05:11:50;27.50;;;14.85;;
65469;SDS011;52067;50.710;14.492;2023-03-14T05:14:15;29.63;;;15.35;;
65469;SDS011;52067;50.710;14.492;2023-03-14T05:16:41;32.85;;;16.00;;
65469;SDS011;52067;50.710;14.492;2023-03-14T05:19:06;34.08;;;16.48;;
65469;SDS011;52067;50.710;14.492;2023-03-14T05:21:32;40.05;;;20.38;;
65469;SDS011;52067;50.710;14.492;2023-03-14T05:23:57;44.05;;;16.83;;
65469;SDS011;52067;50.710;14.492;2023-03-14T05:26:23;26.83;;;14.00;;
65469;SDS011;52067;50.710;14.492;2023-03-14T05:28:48;24.80;;;11.82;;
65469;SDS011;52067;50.710;14.492;2023-03-14T05:31:14;17.48;;;9.52;;
65469;SDS011;52067;50.710;14.492;2023-03-14T05:33:39;21.42;;;10.55;;
65469;SDS011;52067;50.710;14.492;2023-03-14T05:36:05;18.15;;;10.07;;
65469;SDS011;52067;50.710;14.492;2023-03-14T05:38:31;18.02;;;10.55;;
65469;SDS011;52067;50.710;14.492;2023-03-14T05:40:56;20.63;;;10.40;;
65469;SDS011;52067;50.710;14.492;2023-03-14T05:43:22;18.98;;;10.65;;
65469;SDS011;52067;50.710;14.492;2023-03-14T05:45:47;20.75;;;10.93;;
65469;SDS011;52067;50.710;14.492;2023-03-14T05:48:12;18.48;;;9.55;;
65469;SDS011;52067;50.710;14.492;2023-03-14T05:50:38;15.88;;;9.05;;
65469;SDS011;52067;50.710;14.492;2023-03-14T05:53:03;18.77;;;10.15;;
65469;SDS011;52067;50.710;14.492;2023-03-14T05:55:29;17.08;;;9.93;;
65469;SDS011;52067;50.710;14.492;2023-03-14T05:57:55;18.73;;;10.05;;
65469;SDS011;52067;50.710;14.492;2023-03-14T06:00:21;18.88;;;9.10;;
65469;SDS011;52067;50.710;14.492;2023-03-14T06:02:46;20.00;;;10.48;;
65469;SDS011;52067;50.710;14.492;2023-03-14T06:05:12;18.77;;;10.07;;
65469;SDS011;52067;50.710;14.492;2023-03-14T06:07:37;21.75;;;10.13;;
65469;SDS011;52067;50.710;14.492;2023-03-14T06:10:03;20.65;;;10.25;;
65469;SDS011;52067;50.710;14.492;2023-03-14T06:12:29;18.10;;;10.85;;
65469;SDS011;52067;50.710;14.492;2023-03-14T06:14:54;16.88;;;10.18;;
65469;SDS011;52067;50.710;14.492;2023-03-14T06:17:19;22.90;;;10.15;;
65469;SDS011;52067;50.710;14.492;2023-03-14T06:19:45;21.90;;;11.48;;
65469;SDS011;52067;50.710;14.492;2023-03-14T06:22:10;23.38;;;10.73;;
65469;SDS011;52067;50.710;14.492;2023-03-14T06:24:36;22.95;;;12.68;;
65469;SDS011;52067;50.710;14.492;2023-03-14T06:27:01;20.85;;;11.57;;
65469;SDS011;52067;50.710;14.492;2023-03-14T06:29:28;19.90;;;11.10;;
65469;SDS011;52067;50.710;14.492;2023-03-14T06:31:54;20.80;;;11.20;;
65469;SDS011;52067;50.710;14.492;2023-03-14T06:34:19;23.65;;;12.52;;
65469;SDS011;52067;50.710;14.492;2023-03-14T06:36:45;18.65;;;11.18;;
65469;SDS011;52067;50.710;14.492;2023-03-14T06:39:10;18.55;;;10.90;;
65469;SDS011;52067;50.710;14.492;2023-03-14T06:41:36;25.27;;;15.02;;
65469;SDS011;52067;50.710;14.492;2023-03-14T06:44:01;24.50;;;11.57;;
65469;SDS011;52067;50.710;14.492;2023-03-14T06:46:26;18.05;;;10.25;;
65469;SDS011;52067;50.710;14.492;2023-03-14T06:48:52;21.90;;;10.20;;
65469;SDS011;52067;50.710;14.492;2023-03-14T06:51:18;18.90;;;10.63;;
65469;SDS011;52067;50.710;14.492;2023-03-14T06:53:43;18.17;;;10.02;;
65469;SDS011;52067;50.710;14.492;2023-03-14T06:56:09;15.85;;;9.02;;
65469;SDS011;52067;50.710;14.492;2023-03-14T06:58:34;16.33;;;9.50;;
65469;SDS011;52067;50.710;14.492;2023-03-14T07:00:59;23.58;;;10.75;;
65469;SDS011;52067;50.710;14.492;2023-03-14T07:03:25;21.13;;;10.63;;
65469;SDS011;52067;50.710;14.492;2023-03-14T07:05:51;22.45;;;11.43;;
65469;SDS011;52067;50.710;14.492;2023-03-14T07:08:17;23.60;;;11.30;;
65469;SDS011;52067;50.710;14.492;2023-03-14T07:10:42;20.85;;;10.88;;
65469;SDS011;52067;50.710;14.492;2023-03-14T07:13:08;20.42;;;11.60;;
65469;SDS011;52067;50.710;14.492;2023-03-14T07:15:33;18.48;;;10.68;;
65469;SDS011;52067;50.710;14.492;2023-03-14T07:17:58;18.25;;;9.98;;
65469;SDS011;52067;50.710;14.492;2023-03-14T07:20:24;18.55;;;9.75;;
65469;SDS011;52067;50.710;14.492;2023-03-14T07:22:49;18.30;;;10.27;;
65469;SDS011;52067;50.710;14.492;2023-03-14T07:25:15;18.20;;;10.10;;
65469;SDS011;52067;50.710;14.492;2023-03-14T07:27:44;17.70;;;9.23;;
65469;SDS011;52067;50.710;14.492;2023-03-14T07:30:10;29.05;;;12.25;;
65469;SDS011;52067;50.710;14.492;2023-03-14T07:32:36;39.03;;;14.30;;
65469;SDS011;52067;50.710;14.492;2023-03-14T07:35:02;51.58;;;16.02;;
65469;SDS011;52067;50.710;14.492;2023-03-14T07:37:28;62.95;;;18.73;;
65469;SDS011;52067;50.710;14.492;2023-03-14T07:39:53;49.65;;;17.80;;
65469;SDS011;52067;50.710;14.492;2023-03-14T07:42:19;38.50;;;14.27;;
65469;SDS011;52067;50.710;14.492;2023-03-14T07:44:44;30.35;;;12.13;;
65469;SDS011;52067;50.710;14.492;2023-03-14T07:47:09;28.52;;;12.52;;
65469;SDS011;52067;50.710;14.492;2023-03-14T07:49:35;35.70;;;13.20;;
65469;SDS011;52067;50.710;14.492;2023-03-14T07:52:00;28.08;;;12.73;;
65469;SDS011;52067;50.710;14.492;2023-03-14T07:54:25;34.60;;;14.85;;
65469;SDS011;52067;50.710;14.492;2023-03-14T07:56:51;21.70;;;11.57;;
65469;SDS011;52067;50.710;14.492;2023-03-14T07:59:17;15.65;;;8.75;;
65469;SDS011;52067;50.710;14.492;2023-03-14T08:01:43;14.77;;;8.70;;
65469;SDS011;52067;50.710;14.492;2023-03-14T08:04:09;16.13;;;9.60;;
65469;SDS011;52067;50.710;14.492;2023-03-14T08:06:35;14.80;;;9.05;;
65469;SDS011;52067;50.710;14.492;2023-03-14T08:09:00;14.57;;;9.30;;
65469;SDS011;52067;50.710;14.492;2023-03-14T08:11:26;19.63;;;10.23;;
65469;SDS011;52067;50.710;14.492;2023-03-14T08:13:51;17.75;;;11.27;;
65469;SDS011;52067;50.710;14.492;2023-03-14T08:16:17;15.35;;;7.88;;
65469;SDS011;52067;50.710;14.492;2023-03-14T08:18:43;20.08;;;15.57;;
65469;SDS011;52067;50.710;14.492;2023-03-14T08:21:09;32.70;;;29.15;;
65469;SDS011;52067;50.710;14.492;2023-03-14T08:23:35;15.05;;;9.88;;
65469;SDS011;52067;50.710;14.492;2023-03-14T08:26:00;12.88;;;7.60;;
65469;SDS011;52067;50.710;14.492;2023-03-14T08:28:26;12.43;;;7.45;;
65469;SDS011;52067;50.710;14.492;2023-03-14T08:30:58;11.50;;;7.40;;
65469;SDS011;52067;50.710;14.492;2023-03-14T08:33:25;13.05;;;7.93;;
65469;SDS011;52067;50.710;14.492;2023-03-14T08:35:52;15.38;;;7.40;;
65469;SDS011;52067;50.710;14.492;2023-03-14T08:38:18;13.02;;;7.35;;
65469;SDS011;52067;50.710;14.492;2023-03-14T08:40:43;13.02;;;7.10;;
65469;SDS011;52067;50.710;14.492;2023-03-14T08:43:09;13.00;;;7.05;;
65469;SDS011;52067;50.710;14.492;2023-03-14T08:45:34;11.25;;;6.55;;
65469;SDS011;52067;50.710;14.492;2023-03-14T08:47:59;8.15;;;4.40;;
65469;SDS011;52067;50.710;14.492;2023-03-14T08:50:25;8.05;;;3.13;;
65469;SDS011;52067;50.710;14.492;2023-03-14T08:52:51;4.93;;;2.83;;
65469;SDS011;52067;50.710;14.492;2023-03-14T08:55:16;6.30;;;2.90;;
65469;SDS011;52067;50.710;14.492;2023-03-14T08:57:42;7.07;;;2.70;;
65469;SDS011;52067;50.710;14.492;2023-03-14T09:00:07;3.80;;;2.30;;
65469;SDS011;52067;50.710;14.492;2023-03-14T09:02:39;5.68;;;2.05;;
65469;SDS011;52067;50.710;14.492;2023-03-14T09:05:04;4.93;;;2.10;;
65469;SDS011;52067;50.710;14.492;2023-03-14T09:07:31;3.13;;;2.10;;
65469;SDS011;52067;50.710;14.492;2023-03-14T09:09:56;5.32;;;2.28;;
65469;SDS011;52067;50.710;14.492;2023-03-14T09:12:21;2.67;;;1.70;;
65469;SDS011;52067;50.710;14.492;2023-03-14T09:14:47;6.80;;;2.00;;
65469;SDS011;52067;50.710;14.492;2023-03-14T09:17:12;3.92;;;1.75;;
65469;SDS011;52067;50.710;14.492;2023-03-14T09:19:38;3.50;;;1.90;;
65469;SDS011;52067;50.710;14.492;2023-03-14T09:22:03;4.50;;;2.03;;
65469;SDS011;52067;50.710;14.492;2023-03-14T09:24:28;2.78;;;1.80;;
65469;SDS011;52067;50.710;14.492;2023-03-14T09:26:54;4.75;;;1.70;;
65469;SDS011;52067;50.710;14.492;2023-03-14T09:29:21;2.47;;;1.70;;
65469;SDS011;52067;50.710;14.492;2023-03-14T09:31:46;4.57;;;1.73;;
65469;SDS011;52067;50.710;14.492;2023-03-14T09:34:12;2.70;;;1.63;;
65469;SDS011;52067;50.710;14.492;2023-03-14T09:36:37;3.97;;;1.88;;
65469;SDS011;52067;50.710;14.492;2023-03-14T09:39:04;4.35;;;1.88;;
65469;SDS011;52067;50.710;14.492;2023-03-14T09:41:31;4.47;;;1.88;;
65469;SDS011;52067;50.710;14.492;2023-03-14T09:44:06;5.50;;;1.95;;
65469;SDS011;52067;50.710;14.492;2023-03-14T09:46:46;3.42;;;1.80;;
65469;SDS011;52067;50.710;14.492;2023-03-14T09:51:44;3.53;;;2.00;;
65469;SDS011;52067;50.710;14.492;2023-03-14T09:56:59;4.95;;;1.90;;
65469;SDS011;52067;50.710;14.492;2023-03-14T09:59:25;3.85;;;1.70;;
65469;SDS011;52067;50.710;14.492;2023-03-14T10:01:53;3.38;;;1.80;;
65469;SDS011;52067;50.710;14.492;2023-03-14T10:04:23;3.30;;;1.80;;
65469;SDS011;52067;50.710;14.492;2023-03-14T10:06:48;3.38;;;1.88;;
65469;SDS011;52067;50.710;14.492;2023-03-14T10:09:21;2.47;;;1.52;;
65469;SDS011;52067;50.710;14.492;2023-03-14T10:11:54;3.28;;;1.70;;
65469;SDS011;52067;50.710;14.492;2023-03-14T10:14:34;2.58;;;1.35;;
65469;SDS011;52067;50.710;14.492;2023-03-14T10:17:05;2.45;;;1.60;;
65469;SDS011;52067;50.710;14.492;2023-03-14T10:19:32;3.63;;;1.52;;
65469;SDS011;52067;50.710;14.492;2023-03-14T10:22:00;2.78;;;1.50;;
65469;SDS011;52067;50.710;14.492;2023-03-14T10:27:03;3.13;;;1.50;;
65469;SDS011;52067;50.710;14.492;2023-03-14T10:29:30;3.47;;;1.30;;
65469;SDS011;52067;50.710;14.492;2023-03-14T10:32:06;3.13;;;1.38;;
65469;SDS011;52067;50.710;14.492;2023-03-14T10:34:43;6.32;;;1.15;;
65469;SDS011;52067;50.710;14.492;2023-03-14T10:37:17;2.22;;;1.40;;
65469;SDS011;52067;50.710;14.492;2023-03-14T10:39:58;2.15;;;1.30;;
65469;SDS011;52067;50.710;14.492;2023-03-14T10:42:30;1.80;;;1.35;;
65469;SDS011;52067;50.710;14.492;2023-03-14T10:45:00;1.98;;;1.20;;
65469;SDS011;52067;50.710;14.492;2023-03-14T10:47:28;4.30;;;1.20;;
65469;SDS011;52067;50.710;14.492;2023-03-14T10:49:54;4.80;;;1.40;;
65469;SDS011;52067;50.710;14.492;2023-03-14T10:52:24;4.68;;;1.30;;
65469;SDS011;52067;50.710;14.492;2023-03-14T10:54:58;6.63;;;1.48;;
65469;SDS011;52067;50.710;14.492;2023-03-14T10:57:26;1.35;;;1.10;;
65469;SDS011;52067;50.710;14.492;2023-03-14T10:59:53;4.53;;;1.48;;
65469;SDS011;52067;50.710;14.492;2023-03-14T11:02:25;1.95;;;1.17;;
65469;SDS011;52067;50.710;14.492;2023-03-14T11:07:41;3.10;;;1.40;;
65469;SDS011;52067;50.710;14.492;2023-03-14T11:10:16;1.35;;;1.05;;
65469;SDS011;52067;50.710;14.492;2023-03-14T11:13:16;2.08;;;1.30;;
65469;SDS011;52067;50.710;14.492;2023-03-14T11:21:11;2.65;;;1.17;;
65469;SDS011;52067;50.710;14.492;2023-03-14T11:26:33;2.63;;;1.45;;
65469;SDS011;52067;50.710;14.492;2023-03-14T11:31:57;5.22;;;1.80;;
65469;SDS011;52067;50.710;14.492;2023-03-14T11:34:30;2.95;;;1.30;;
65469;SDS011;52067;50.710;14.492;2023-03-14T11:37:14;1.73;;;1.10;;
65469;SDS011;52067;50.710;14.492;2023-03-14T11:42:43;2.83;;;1.20;;
65469;SDS011;52067;50.710;14.492;2023-03-14T11:45:18;2.20;;;1.35;;
65469;SDS011;52067;50.710;14.492;2023-03-14T11:47:49;1.90;;;1.17;;
65469;SDS011;52067;50.710;14.492;2023-03-14T11:50:28;1.85;;;1.27;;
65469;SDS011;52067;50.710;14.492;2023-03-14T11:53:05;2.08;;;1.27;;
65469;SDS011;52067;50.710;14.492;2023-03-14T11:55:42;3.05;;;1.33;;
65469;SDS011;52067;50.710;14.492;2023-03-14T11:58:15;1.90;;;1.20;;
65469;SDS011;52067;50.710;14.492;2023-03-14T12:00:45;1.70;;;1.20;;
65469;SDS011;52067;50.710;14.492;2023-03-14T12:14:03;6.32;;;1.30;;
65469;SDS011;52067;50.710;14.492;2023-03-14T12:16:43;2.90;;;1.20;;
65469;SDS011;52067;50.710;14.492;2023-03-14T12:19:26;2.28;;;1.30;;
65469;SDS011;52067;50.710;14.492;2023-03-14T12:24:28;4.20;;;1.45;;
65469;SDS011;52067;50.710;14.492;2023-03-14T12:26:57;3.30;;;1.30;;
65469;SDS011;52067;50.710;14.492;2023-03-14T12:29:24;3.53;;;1.20;;
65469;SDS011;52067;50.710;14.492;2023-03-14T12:34:46;3.25;;;1.30;;
65469;SDS011;52067;50.710;14.492;2023-03-14T12:37:26;2.78;;;1.30;;
65469;SDS011;52067;50.710;14.492;2023-03-14T12:59:17;1.85;;;1.00;;
65469;SDS011;52067;50.710;14.492;2023-03-14T13:01:56;2.90;;;1.10;;
65469;SDS011;52067;50.710;14.492;2023-03-14T13:04:26;2.65;;;1.20;;
65469;SDS011;52067;50.710;14.492;2023-03-14T13:08:02;2.17;;;1.45;;
65469;SDS011;52067;50.710;14.492;2023-03-14T13:12:53;2.47;;;1.20;;
65469;SDS011;52067;50.710;14.492;2023-03-14T13:15:29;2.05;;;1.30;;
65469;SDS011;52067;50.710;14.492;2023-03-14T13:18:14;3.08;;;1.30;;
65469;SDS011;52067;50.710;14.492;2023-03-14T13:20:46;2.20;;;1.15;;
65469;SDS011;52067;50.710;14.492;2023-03-14T13:23:23;1.63;;;0.98;;
65469;SDS011;52067;50.710;14.492;2023-03-14T13:25:53;3.13;;;1.15;;
65469;SDS011;52067;50.710;14.492;2023-03-14T13:28:19;1.73;;;1.00;;
65469;SDS011;52067;50.710;14.492;2023-03-14T13:30:46;2.83;;;1.10;;
65469;SDS011;52067;50.710;14.492;2023-03-14T13:33:20;1.42;;;1.10;;
65469;SDS011;52067;50.710;14.492;2023-03-14T13:35:47;1.58;;;1.10;;
65469;SDS011;52067;50.710;14.492;2023-03-14T13:38:20;2.70;;;1.30;;
65469;SDS011;52067;50.710;14.492;2023-03-14T13:40:48;2.60;;;1.30;;
65469;SDS011;52067;50.710;14.492;2023-03-14T13:48:27;1.50;;;1.20;;
65469;SDS011;52067;50.710;14.492;2023-03-14T13:50:56;1.60;;;1.13;;
65469;SDS011;52067;50.710;14.492;2023-03-14T13:53:26;3.60;;;1.08;;
65469;SDS011;52067;50.710;14.492;2023-03-14T13:55:51;1.92;;;1.23;;
65469;SDS011;52067;50.710;14.492;2023-03-14T13:58:24;3.20;;;1.35;;
65469;SDS011;52067;50.710;14.492;2023-03-14T14:00:56;3.97;;;1.30;;
65469;SDS011;52067;50.710;14.492;2023-03-14T14:03:37;2.00;;;1.10;;
65469;SDS011;52067;50.710;14.492;2023-03-14T14:06:05;2.85;;;1.20;;
65469;SDS011;52067;50.710;14.492;2023-03-14T14:08:42;1.80;;;1.17;;
65469;SDS011;52067;50.710;14.492;2023-03-14T14:11:07;2.80;;;1.35;;
65469;SDS011;52067;50.710;14.492;2023-03-14T14:13:39;2.63;;;1.17;;
65469;SDS011;52067;50.710;14.492;2023-03-14T14:16:05;5.20;;;1.30;;
65469;SDS011;52067;50.710;14.492;2023-03-14T14:18:31;5.68;;;1.33;;
65469;SDS011;52067;50.710;14.492;2023-03-14T14:20:59;3.00;;;1.30;;
65469;SDS011;52067;50.710;14.492;2023-03-14T14:23:25;3.17;;;1.52;;
65469;SDS011;52067;50.710;14.492;2023-03-14T14:25:54;1.92;;;1.30;;
65469;SDS011;52067;50.710;14.492;2023-03-14T14:33:42;1.88;;;1.30;;
65469;SDS011;52067;50.710;14.492;2023-03-14T14:38:54;3.97;;;1.20;;
65469;SDS011;52067;50.710;14.492;2023-03-14T14:41:26;1.42;;;0.98;;
65469;SDS011;52067;50.710;14.492;2023-03-14T14:43:53;2.08;;;1.20;;
65469;SDS011;52067;50.710;14.492;2023-03-14T14:46:20;1.58;;;1.00;;
65469;SDS011;52067;50.710;14.492;2023-03-14T14:48:46;1.73;;;1.10;;
65469;SDS011;52067;50.710;14.492;2023-03-14T14:51:22;2.60;;;1.27;;
65469;SDS011;52067;50.710;14.492;2023-03-14T14:53:49;4.32;;;1.27;;
65469;SDS011;52067;50.710;14.492;2023-03-14T14:56:27;2.13;;;1.52;;
65469;SDS011;52067;50.710;14.492;2023-03-14T14:58:59;1.95;;;1.40;;
65469;SDS011;52067;50.710;14.492;2023-03-14T15:01:31;2.83;;;1.60;;
65469;SDS011;52067;50.710;14.492;2023-03-14T15:03:59;2.03;;;1.45;;
65469;SDS011;52067;50.710;14.492;2023-03-14T15:06:26;2.55;;;1.40;;
65469;SDS011;52067;50.710;14.492;2023-03-14T15:08:54;4.05;;;1.48;;
65469;SDS011;52067;50.710;14.492;2023-03-14T15:11:21;2.50;;;1.50;;
65469;SDS011;52067;50.710;14.492;2023-03-14T15:13:48;3.83;;;1.42;;
65469;SDS011;52067;50.710;14.492;2023-03-14T15:16:15;2.67;;;1.67;;
65469;SDS011;52067;50.710;14.492;2023-03-14T15:18:44;2.72;;;1.40;;
65469;SDS011;52067;50.710;14.492;2023-03-14T15:21:13;6.15;;;1.38;;
65469;SDS011;52067;50.710;14.492;2023-03-14T15:23:39;3.10;;;1.35;;
65469;SDS011;52067;50.710;14.492;2023-03-14T15:26:13;2.22;;;1.20;;
65469;SDS011;52067;50.710;14.492;2023-03-14T15:28:41;3.92;;;1.30;;
65469;SDS011;52067;50.710;14.492;2023-03-14T15:31:08;3.20;;;1.30;;
65469;SDS011;52067;50.710;14.492;2023-03-14T15:33:35;2.25;;;1.30;;
65469;SDS011;52067;50.710;14.492;2023-03-14T15:36:00;6.47;;;1.50;;
65469;SDS011;52067;50.710;14.492;2023-03-14T15:38:26;2.38;;;1.17;;
65469;SDS011;52067;50.710;14.492;2023-03-14T15:40:51;2.45;;;1.40;;
65469;SDS011;52067;50.710;14.492;2023-03-14T15:43:17;1.83;;;1.30;;
65469;SDS011;52067;50.710;14.492;2023-03-14T15:45:43;2.08;;;1.30;;
65469;SDS011;52067;50.710;14.492;2023-03-14T15:48:14;2.97;;;1.35;;
65469;SDS011;52067;50.710;14.492;2023-03-14T15:50:41;2.95;;;1.50;;
65469;SDS011;52067;50.710;14.492;2023-03-14T15:53:07;7.93;;;1.50;;
65469;SDS011;52067;50.710;14.492;2023-03-14T15:55:33;2.80;;;1.50;;